Map

Track Data

SID SEASON NUMBER BASIN SUBBASIN NAME ISO_TIME NATURE LAT LON WMO_WIND WMO_PRES WMO_AGENCY TRACK_TYPE DIST2LAND LANDFALL IFLAG USA_AGENCY USA_ATCF_ID USA_LAT USA_LON USA_RECORD USA_STATUS USA_WIND USA_PRES USA_SSHS USA_R34_NE USA_R34_SE USA_R34_SW USA_R34_NW USA_R50_NE USA_R50_SE USA_R50_SW USA_R50_NW USA_R64_NE USA_R64_SE USA_R64_SW USA_R64_NW USA_POCI USA_ROCI USA_RMW USA_EYE TOKYO_LAT TOKYO_LON TOKYO_GRADE TOKYO_WIND TOKYO_PRES TOKYO_R50_DIR TOKYO_R50_LONG TOKYO_R50_SHORT TOKYO_R30_DIR TOKYO_R30_LONG TOKYO_R30_SHORT TOKYO_LAND CMA_LAT CMA_LON CMA_CAT CMA_WIND CMA_PRES HKO_LAT HKO_LON HKO_CAT HKO_WIND HKO_PRES NEWDELHI_LAT NEWDELHI_LON NEWDELHI_GRADE NEWDELHI_WIND NEWDELHI_PRES NEWDELHI_CI NEWDELHI_DP NEWDELHI_POCI REUNION_LAT REUNION_LON REUNION_TYPE REUNION_WIND REUNION_PRES REUNION_TNUM REUNION_CI REUNION_RMW REUNION_R34_NE REUNION_R34_SE REUNION_R34_SW REUNION_R34_NW REUNION_R50_NE REUNION_R50_SE REUNION_R50_SW REUNION_R50_NW REUNION_R64_NE REUNION_R64_SE REUNION_R64_SW REUNION_R64_NW BOM_LAT BOM_LON BOM_TYPE BOM_WIND BOM_PRES BOM_TNUM BOM_CI BOM_RMW BOM_R34_NE BOM_R34_SE BOM_R34_SW BOM_R34_NW BOM_R50_NE BOM_R50_SE BOM_R50_SW BOM_R50_NW BOM_R64_NE BOM_R64_SE BOM_R64_SW BOM_R64_NW BOM_ROCI BOM_POCI BOM_EYE BOM_POS_METHOD BOM_PRES_METHOD NADI_LAT NADI_LON NADI_CAT NADI_WIND NADI_PRES WELLINGTON_LAT WELLINGTON_LON WELLINGTON_WIND WELLINGTON_PRES DS824_LAT DS824_LON DS824_STAGE DS824_WIND DS824_PRES TD9636_LAT TD9636_LON TD9636_STAGE TD9636_WIND TD9636_PRES TD9635_LAT TD9635_LON TD9635_WIND TD9635_PRES TD9635_ROCI NEUMANN_LAT NEUMANN_LON NEUMANN_CLASS NEUMANN_WIND NEUMANN_PRES MLC_LAT MLC_LON MLC_CLASS MLC_WIND MLC_PRES USA_GUST BOM_GUST BOM_GUST_PER REUNION_GUST REUNION_GUST_PER USA_SEAHGT USA_SEARAD_NE USA_SEARAD_SE USA_SEARAD_SW USA_SEARAD_NW STORM_SPEED STORM_DIR
1979205N17325 1979 60 NA NA NOT_NAMED 1979-07-23 12:00:00 TS 17.0000 -35.5000 20 hurdat_atl main 1942 1942 O_____________ hurdat_atl AL071979 17.0000 -35.5000 TD 20 -1 16 284
1979205N17325 1979 60 NA NA NOT_NAMED 1979-07-23 15:00:00 TS 17.1955 -36.3324 main 2029 2029 P_____________ AL071979 17.1955 -36.3324 TD 20 -1 17 284
1979205N17325 1979 60 NA NA NOT_NAMED 1979-07-23 18:00:00 TS 17.4000 -37.2000 20 hurdat_atl main 2124 2070 O_____________ hurdat_atl AL071979 17.4000 -37.2000 TD 20 -1 18 284
1979205N17325 1979 60 NA NA NOT_NAMED 1979-07-23 21:00:00 TS 17.6150 -38.1149 main 2070 2020 P_____________ AL071979 17.6150 -38.1149 TD 22 -1 18 283
1979205N17325 1979 60 NA NA NOT_NAMED 1979-07-24 00:00:00 TS 17.8000 -39.0000 25 hurdat_atl main 2020 1978 O_____________ hurdat_atl AL071979 17.8000 -39.0000 TD 25 -1 16 281
1979205N17325 1979 60 NA NA NOT_NAMED 1979-07-24 03:00:00 TS 17.9143 -39.7653 main 1971 1932 P_____________ AL071979 17.9143 -39.7653 TD 25 -1 14 278
1979205N17325 1979 60 NA NA NOT_NAMED 1979-07-24 06:00:00 TS 18.0000 -40.5000 25 hurdat_atl main 1932 1893 O_____________ hurdat_atl AL071979 18.0000 -40.5000 TD 25 -1 14 276
1979205N17325 1979 60 NA NA NOT_NAMED 1979-07-24 09:00:00 TS 18.0621 -41.2782 main 1890 1849 P_____________ AL071979 18.0621 -41.2782 TD 27 -1 15 277
1979205N17325 1979 60 NA NA NOT_NAMED 1979-07-24 12:00:00 TS 18.2000 -42.1000 30 hurdat_atl main 1849 1821 O_____________ hurdat_atl AL071979 18.2000 -42.1000 TD 30 -1 17 286
1979205N17325 1979 60 NA NA NOT_NAMED 1979-07-24 15:00:00 TS 18.5200 -42.9995 main 1818 1797 P_____________ AL071979 18.5200 -42.9995 TD 30 -1 18 292
1979205N17325 1979 60 NA NA NOT_NAMED 1979-07-24 18:00:00 TS 18.9000 -43.9000 30 hurdat_atl main 1801 1781 O_____________ hurdat_atl AL071979 18.9000 -43.9000 TD 30 -1 18 292
1979205N17325 1979 60 NA NA NOT_NAMED 1979-07-24 21:00:00 TS 19.1920 -44.7231 main 1786 1770 P_____________ AL071979 19.1920 -44.7231 TD 30 -1 16 292
1979205N17325 1979 60 NA NA NOT_NAMED 1979-07-25 00:00:00 TS 19.5000 -45.5000 30 hurdat_atl main 1775 1771 O_____________ hurdat_atl AL071979 19.5000 -45.5000 TD 30 -1 16 296
1979205N17325 1979 60 NA NA NOT_NAMED 1979-07-25 03:00:00 TS 19.8917 -46.2278 main 1783 1779 P_____________ AL071979 19.8917 -46.2278 TD 30 -1 16 300
1979205N17325 1979 60 NA NA NOT_NAMED 1979-07-25 06:00:00 TS 20.3000 -47.0000 30 hurdat_atl main 1790 1778 O_____________ hurdat_atl AL071979 20.3000 -47.0000 TD 30 -1 18 294
1979205N17325 1979 60 NA NA NOT_NAMED 1979-07-25 09:00:00 TS 20.6358 -47.9802 main 1776 1731 P_____________ AL071979 20.6358 -47.9802 TD 30 -1 19 291
1979205N17325 1979 60 NA NA NOT_NAMED 1979-07-25 12:00:00 TS 21.0000 -48.9000 30 hurdat_atl main 1731 1714 O_____________ hurdat_atl AL071979 21.0000 -48.9000 TD 30 -1 17 300
1979205N17325 1979 60 NA NA NOT_NAMED 1979-07-25 15:00:00 TS 21.4617 -49.5181 main 1717 1675 P_____________ AL071979 21.4617 -49.5181 TD 30 -1 14 314
1979205N17325 1979 60 NA NA NOT_NAMED 1979-07-25 18:00:00 TS 22.0000 -50.0000 30 hurdat_atl main 1675 1637 O_____________ hurdat_atl AL071979 22.0000 -50.0000 TD 30 -1 15 320
1979205N17325 1979 60 NA NA NOT_NAMED 1979-07-25 21:00:00 TS 22.5776 -50.5449 main 1640 1605 P_____________ AL071979 22.5776 -50.5449 TD 27 -1 15 322
1979205N17325 1979 60 NA NA NOT_NAMED 1979-07-26 00:00:00 TS 23.2000 -51.0000 25 hurdat_atl main 1608 1599 O_____________ hurdat_atl AL071979 23.2000 -51.0000 TD 25 -1 14 331
1979205N17325 1979 60 NA NA NOT_NAMED 1979-07-26 03:00:00 TS 23.8272 -51.2883 main 1600 1598 P_____________ AL071979 23.8272 -51.2883 TD 25 -1 14 341
1979205N17325 1979 60 NA NA NOT_NAMED 1979-07-26 06:00:00 TS 24.5000 -51.5000 25 hurdat_atl main 1609 1608 O_____________ hurdat_atl AL071979 24.5000 -51.5000 TD 25 -1 15 344
1979205N17325 1979 60 NA NA NOT_NAMED 1979-07-26 09:00:00 TS 25.3099 -51.7497 main 1626 1622 P_____________ AL071979 25.3099 -51.7497 TD 25 -1 16 343
1979205N17325 1979 60 NA NA NOT_NAMED 1979-07-26 12:00:00 TS 26.0000 -52.0000 25 hurdat_atl main 1635 1632 O_____________ hurdat_atl AL071979 26.0000 -52.0000 TD 25 -1 11 337
1979205N17325 1979 60 NA NA NOT_NAMED 1979-07-26 15:00:00 TS 26.3551 -52.2503 main 1631 1620 P_____________ AL071979 26.3551 -52.2503 TD 22 -1 7 318
1979205N17325 1979 60 NA NA NOT_NAMED 1979-07-26 18:00:00 TS 26.5000 -52.5000 20 hurdat_atl main 1620 O_____________ hurdat_atl AL071979 26.5000 -52.5000 TD 20 -1 5 303

About IBTrACS Database

This database is a web-friendly format of International Best Track Archive for Climate Stewardship (IBTrACS), a global best track data archive curated by NOAA dating back to 1842.

Updated: 2021-10-08